sensor_id;sensor_type;location;lat;lon;timestamp;pressure;altitude;pressure_sealevel;temperature;humidity
63691;BME280;49837;57.280;27.070;2023-05-23T00:00:45;100506.03;;;9.7;100.0
63691;BME280;49837;57.280;27.070;2023-05-23T00:01:46;100510.31;;;9.69;100.0
63691;BME280;49837;57.280;27.070;2023-05-23T00:02:46;100506.81;;;9.68;100.0
63691;BME280;49837;57.280;27.070;2023-05-23T00:03:47;100506.22;;;9.68;100.0
63691;BME280;49837;57.280;27.070;2023-05-23T00:04:47;100510.09;;;9.67;100.0
63691;BME280;49837;57.280;27.070;2023-05-23T00:05:48;100509.52;;;9.66;100.0
63691;BME280;49837;57.280;27.070;2023-05-23T00:06:48;100511.66;;;9.64;100.0
63691;BME280;49837;57.280;27.070;2023-05-23T00:07:48;100508.74;;;9.6;100.0
63691;BME280;49837;57.280;27.070;2023-05-23T00:08:49;100507.16;;;9.55;100.0
63691;BME280;49837;57.280;27.070;2023-05-23T00:09:49;100505.95;;;9.52;100.0
63691;BME280;49837;57.280;27.070;2023-05-23T00:10:50;100505.02;;;9.49;100.0
63691;BME280;49837;57.280;27.070;2023-05-23T00:11:50;100505.06;;;9.48;100.0
63691;BME280;49837;57.280;27.070;2023-05-23T00:12:50;100506.81;;;9.47;100.0
63691;BME280;49837;57.280;27.070;2023-05-23T00:13:54;100501.95;;;9.45;100.0
63691;BME280;49837;57.280;27.070;2023-05-23T00:14:51;100505.75;;;9.47;100.0
63691;BME280;49837;57.280;27.070;2023-05-23T00:15:52;100504.67;;;9.47;100.0
63691;BME280;49837;57.280;27.070;2023-05-23T00:16:52;100506.59;;;9.46;100.0
63691;BME280;49837;57.280;27.070;2023-05-23T00:17:53;100510.68;;;9.45;100.0
63691;BME280;49837;57.280;27.070;2023-05-23T00:18:53;100508.69;;;9.45;100.0
63691;BME280;49837;57.280;27.070;2023-05-23T00:19:54;100510.95;;;9.45;100.0
63691;BME280;49837;57.280;27.070;2023-05-23T00:20:54;100508.41;;;9.42;100.0
63691;BME280;49837;57.280;27.070;2023-05-23T00:21:54;100511.54;;;9.4;100.0
63691;BME280;49837;57.280;27.070;2023-05-23T00:22:55;100505.08;;;9.37;100.0
63691;BME280;49837;57.280;27.070;2023-05-23T00:23:55;100508.64;;;9.35;100.0
63691;BME280;49837;57.280;27.070;2023-05-23T00:24:55;100510.11;;;9.33;100.0
63691;BME280;49837;57.280;27.070;2023-05-23T00:25:56;100508.16;;;9.3;100.0
63691;BME280;49837;57.280;27.070;2023-05-23T00:26:56;100511.97;;;9.3;100.0
63691;BME280;49837;57.280;27.070;2023-05-23T00:27:57;100508.41;;;9.29;100.0
63691;BME280;49837;57.280;27.070;2023-05-23T00:28:57;100511.64;;;9.3;100.0
63691;BME280;49837;57.280;27.070;2023-05-23T00:29:58;100513.03;;;9.27;100.0
63691;BME280;49837;57.280;27.070;2023-05-23T00:30:58;100513.07;;;9.25;100.0
63691;BME280;49837;57.280;27.070;2023-05-23T00:31:58;100511.19;;;9.24;100.0
63691;BME280;49837;57.280;27.070;2023-05-23T00:32:59;100510.41;;;9.21;100.0
63691;BME280;49837;57.280;27.070;2023-05-23T00:33:59;100508.84;;;9.19;100.0
63691;BME280;49837;57.280;27.070;2023-05-23T00:35:00;100510.05;;;9.17;100.0
63691;BME280;49837;57.280;27.070;2023-05-23T00:36:00;100504.33;;;9.17;100.0
63691;BME280;49837;57.280;27.070;2023-05-23T00:37:00;100506.48;;;9.17;100.0
63691;BME280;49837;57.280;27.070;2023-05-23T00:38:01;100506.4;;;9.17;100.0
63691;BME280;49837;57.280;27.070;2023-05-23T00:39:01;100507.28;;;9.14;100.0
63691;BME280;49837;57.280;27.070;2023-05-23T00:40:02;100510.58;;;9.12;100.0
63691;BME280;49837;57.280;27.070;2023-05-23T00:41:02;100509.45;;;9.1;100.0
63691;BME280;49837;57.280;27.070;2023-05-23T00:42:06;100509.72;;;9.08;100.0
63691;BME280;49837;57.280;27.070;2023-05-23T00:43:03;100512.97;;;9.07;100.0
63691;BME280;49837;57.280;27.070;2023-05-23T00:44:04;100511.11;;;9.05;100.0
63691;BME280;49837;57.280;27.070;2023-05-23T00:45:05;100514.42;;;9.06;100.0
63691;BME280;49837;57.280;27.070;2023-05-23T00:46:05;100511.55;;;9.03;100.0
63691;BME280;49837;57.280;27.070;2023-05-23T00:47:06;100511.69;;;9.01;100.0
63691;BME280;49837;57.280;27.070;2023-05-23T00:48:06;100515.08;;;8.92;100.0
63691;BME280;49837;57.280;27.070;2023-05-23T00:49:06;100514.74;;;8.88;100.0
63691;BME280;49837;57.280;27.070;2023-05-23T00:50:08;100513.72;;;8.84;100.0
63691;BME280;49837;57.280;27.070;2023-05-23T00:51:07;100517.98;;;8.83;100.0
63691;BME280;49837;57.280;27.070;2023-05-23T00:52:07;100514.9;;;8.83;100.0
63691;BME280;49837;57.280;27.070;2023-05-23T00:53:07;100517.94;;;8.86;100.0
63691;BME280;49837;57.280;27.070;2023-05-23T00:54:08;100520.23;;;8.88;100.0
63691;BME280;49837;57.280;27.070;2023-05-23T00:55:09;100518.12;;;8.89;100.0
63691;BME280;49837;57.280;27.070;2023-05-23T00:56:09;100515.58;;;8.88;100.0
63691;BME280;49837;57.280;27.070;2023-05-23T00:57:09;100514.3;;;8.89;100.0
63691;BME280;49837;57.280;27.070;2023-05-23T00:58:09;100518.07;;;8.88;100.0
63691;BME280;49837;57.280;27.070;2023-05-23T00:59:11;100520.36;;;8.9;100.0
63691;BME280;49837;57.280;27.070;2023-05-23T01:00:12;100517.36;;;8.9;100.0
63691;BME280;49837;57.280;27.070;2023-05-23T01:01:11;100514.13;;;8.89;100.0
63691;BME280;49837;57.280;27.070;2023-05-23T01:02:11;100516.31;;;8.88;100.0
63691;BME280;49837;57.280;27.070;2023-05-23T01:03:11;100513.33;;;8.87;100.0
63691;BME280;49837;57.280;27.070;2023-05-23T01:04:12;100510.83;;;8.88;100.0
63691;BME280;49837;57.280;27.070;2023-05-23T01:05:14;100513.34;;;8.86;100.0
63691;BME280;49837;57.280;27.070;2023-05-23T01:06:13;100510.97;;;8.85;100.0
63691;BME280;49837;57.280;27.070;2023-05-23T01:07:13;100511.98;;;8.84;100.0
63691;BME280;49837;57.280;27.070;2023-05-23T01:08:13;100509.7;;;8.85;100.0
63691;BME280;49837;57.280;27.070;2023-05-23T01:09:17;100514.19;;;8.86;100.0
63691;BME280;49837;57.280;27.070;2023-05-23T01:10:20;100516.44;;;8.86;100.0
63691;BME280;49837;57.280;27.070;2023-05-23T01:11:29;100515.61;;;8.86;100.0
63691;BME280;49837;57.280;27.070;2023-05-23T01:14:40;100510.8;;;8.84;100.0
63691;BME280;49837;57.280;27.070;2023-05-23T01:15:39;100510.5;;;8.87;100.0
63691;BME280;49837;57.280;27.070;2023-05-23T01:20:51;100513.38;;;8.84;100.0
63691;BME280;49837;57.280;27.070;2023-05-23T01:21:52;100511.88;;;8.84;100.0
63691;BME280;49837;57.280;27.070;2023-05-23T01:28:07;100515.39;;;8.79;100.0
63691;BME280;49837;57.280;27.070;2023-05-23T01:30:10;100515.52;;;8.8;100.0
63691;BME280;49837;57.280;27.070;2023-05-23T01:31:10;100514.63;;;8.79;100.0
63691;BME280;49837;57.280;27.070;2023-05-23T01:32:11;100515.13;;;8.79;100.0
63691;BME280;49837;57.280;27.070;2023-05-23T01:33:13;100513.03;;;8.76;100.0
63691;BME280;49837;57.280;27.070;2023-05-23T01:34:12;100513.95;;;8.76;100.0
63691;BME280;49837;57.280;27.070;2023-05-23T01:35:14;100513.61;;;8.76;100.0
63691;BME280;49837;57.280;27.070;2023-05-23T01:36:14;100514.62;;;8.75;100.0
63691;BME280;49837;57.280;27.070;2023-05-23T01:37:14;100513.64;;;8.73;100.0
63691;BME280;49837;57.280;27.070;2023-05-23T01:38:15;100516.32;;;8.72;100.0
63691;BME280;49837;57.280;27.070;2023-05-23T01:39:15;100512.28;;;8.71;100.0
63691;BME280;49837;57.280;27.070;2023-05-23T01:40:16;100512.45;;;8.7;100.0
63691;BME280;49837;57.280;27.070;2023-05-23T01:41:16;100512.14;;;8.69;100.0
63691;BME280;49837;57.280;27.070;2023-05-23T01:42:17;100512.4;;;8.68;100.0
63691;BME280;49837;57.280;27.070;2023-05-23T01:43:17;100513.78;;;8.7;100.0
63691;BME280;49837;57.280;27.070;2023-05-23T01:44:17;100513.92;;;8.68;100.0
63691;BME280;49837;57.280;27.070;2023-05-23T01:45:18;100513.59;;;8.66;100.0
63691;BME280;49837;57.280;27.070;2023-05-23T01:46:20;100515.45;;;8.66;100.0
63691;BME280;49837;57.280;27.070;2023-05-23T01:47:19;100509.61;;;8.67;100.0
63691;BME280;49837;57.280;27.070;2023-05-23T01:48:20;100513.19;;;8.66;100.0
63691;BME280;49837;57.280;27.070;2023-05-23T01:49:21;100512.3;;;8.65;100.0
63691;BME280;49837;57.280;27.070;2023-05-23T01:50:21;100508.23;;;8.63;100.0
63691;BME280;49837;57.280;27.070;2023-05-23T01:51:23;100506.73;;;8.64;100.0
63691;BME280;49837;57.280;27.070;2023-05-23T01:52:21;100510.63;;;8.64;100.0
63691;BME280;49837;57.280;27.070;2023-05-23T01:53:22;100507.16;;;8.64;100.0
63691;BME280;49837;57.280;27.070;2023-05-23T01:54:22;100510.69;;;8.61;100.0
63691;BME280;49837;57.280;27.070;2023-05-23T01:55:24;100507.17;;;8.58;100.0
63691;BME280;49837;57.280;27.070;2023-05-23T01:56:23;100504.47;;;8.55;100.0
63691;BME280;49837;57.280;27.070;2023-05-23T01:57:23;100501.58;;;8.54;100.0
63691;BME280;49837;57.280;27.070;2023-05-23T01:58:23;100503.81;;;8.54;100.0
63691;BME280;49837;57.280;27.070;2023-05-23T01:59:24;100502.4;;;8.55;100.0
63691;BME280;49837;57.280;27.070;2023-05-23T02:00:24;100496.73;;;8.56;100.0
63691;BME280;49837;57.280;27.070;2023-05-23T02:01:24;100500.84;;;8.58;100.0
63691;BME280;49837;57.280;27.070;2023-05-23T02:02:25;100502.17;;;8.59;100.0
63691;BME280;49837;57.280;27.070;2023-05-23T02:03:25;100501.95;;;8.57;100.0
63691;BME280;49837;57.280;27.070;2023-05-23T02:04:27;100503.7;;;8.51;100.0
63691;BME280;49837;57.280;27.070;2023-05-23T02:05:26;100501.3;;;8.47;100.0
63691;BME280;49837;57.280;27.070;2023-05-23T02:06:26;100500.02;;;8.46;100.0
63691;BME280;49837;57.280;27.070;2023-05-23T02:07:27;100501.36;;;8.44;100.0
63691;BME280;49837;57.280;27.070;2023-05-23T02:08:27;100500.48;;;8.44;100.0
63691;BME280;49837;57.280;27.070;2023-05-23T02:09:28;100502.37;;;8.43;100.0
63691;BME280;49837;57.280;27.070;2023-05-23T02:10:28;100500.04;;;8.43;100.0
63691;BME280;49837;57.280;27.070;2023-05-23T02:11:28;100500.16;;;8.43;100.0
63691;BME280;49837;57.280;27.070;2023-05-23T02:12:29;100502.06;;;8.43;100.0
63691;BME280;49837;57.280;27.070;2023-05-23T02:13:29;100501.1;;;8.45;100.0
63691;BME280;49837;57.280;27.070;2023-05-23T02:14:29;100501.56;;;8.47;100.0
63691;BME280;49837;57.280;27.070;2023-05-23T02:15:30;100501.7;;;8.51;100.0
63691;BME280;49837;57.280;27.070;2023-05-23T02:16:30;100501.91;;;8.54;100.0
63691;BME280;49837;57.280;27.070;2023-05-23T02:17:31;100501.07;;;8.55;100.0
63691;BME280;49837;57.280;27.070;2023-05-23T02:18:31;100503.54;;;8.56;100.0
63691;BME280;49837;57.280;27.070;2023-05-23T02:19:32;100505.96;;;8.55;100.0
63691;BME280;49837;57.280;27.070;2023-05-23T02:20:32;100505.38;;;8.56;100.0
63691;BME280;49837;57.280;27.070;2023-05-23T02:21:32;100504.15;;;8.54;100.0
63691;BME280;49837;57.280;27.070;2023-05-23T02:22:34;100504.56;;;8.55;100.0
63691;BME280;49837;57.280;27.070;2023-05-23T02:23:33;100501.73;;;8.59;100.0
63691;BME280;49837;57.280;27.070;2023-05-23T02:24:34;100504.21;;;8.6;100.0
63691;BME280;49837;57.280;27.070;2023-05-23T02:25:34;100500.55;;;8.62;100.0
63691;BME280;49837;57.280;27.070;2023-05-23T02:26:34;100506.0;;;8.63;100.0
63691;BME280;49837;57.280;27.070;2023-05-23T02:27:35;100506.02;;;8.62;100.0
63691;BME280;49837;57.280;27.070;2023-05-23T02:28:35;100509.27;;;8.62;100.0
63691;BME280;49837;57.280;27.070;2023-05-23T02:29:36;100503.57;;;8.6;100.0
63691;BME280;49837;57.280;27.070;2023-05-23T02:30:36;100504.66;;;8.59;100.0
63691;BME280;49837;57.280;27.070;2023-05-23T02:31:37;100508.58;;;8.59;100.0
63691;BME280;49837;57.280;27.070;2023-05-23T02:32:37;100509.27;;;8.57;100.0
63691;BME280;49837;57.280;27.070;2023-05-23T02:33:37;100506.44;;;8.52;100.0
63691;BME280;49837;57.280;27.070;2023-05-23T02:34:38;100504.51;;;8.46;100.0
63691;BME280;49837;57.280;27.070;2023-05-23T02:35:38;100504.18;;;8.44;100.0
63691;BME280;49837;57.280;27.070;2023-05-23T02:36:38;100501.52;;;8.46;100.0
63691;BME280;49837;57.280;27.070;2023-05-23T02:37:39;100504.56;;;8.47;100.0
63691;BME280;49837;57.280;27.070;2023-05-23T02:38:39;100501.91;;;8.47;100.0
63691;BME280;49837;57.280;27.070;2023-05-23T02:39:40;100502.38;;;8.5;100.0
63691;BME280;49837;57.280;27.070;2023-05-23T02:40:40;100500.48;;;8.55;100.0
63691;BME280;49837;57.280;27.070;2023-05-23T02:41:40;100502.79;;;8.57;100.0
63691;BME280;49837;57.280;27.070;2023-05-23T02:42:41;100504.86;;;8.57;100.0
63691;BME280;49837;57.280;27.070;2023-05-23T02:43:41;100505.72;;;8.61;100.0
63691;BME280;49837;57.280;27.070;2023-05-23T02:44:42;100502.47;;;8.65;100.0
63691;BME280;49837;57.280;27.070;2023-05-23T02:45:43;100505.73;;;8.7;100.0
63691;BME280;49837;57.280;27.070;2023-05-23T02:46:44;100504.23;;;8.74;100.0
63691;BME280;49837;57.280;27.070;2023-05-23T02:47:44;100504.34;;;8.73;100.0
63691;BME280;49837;57.280;27.070;2023-05-23T02:48:44;100506.47;;;8.74;100.0
63691;BME280;49837;57.280;27.070;2023-05-23T02:49:45;100504.76;;;8.77;100.0
63691;BME280;49837;57.280;27.070;2023-05-23T02:50:45;100508.11;;;8.81;100.0
63691;BME280;49837;57.280;27.070;2023-05-23T02:51:45;100505.42;;;8.84;100.0
63691;BME280;49837;57.280;27.070;2023-05-23T02:52:46;100506.82;;;8.88;100.0
63691;BME280;49837;57.280;27.070;2023-05-23T02:53:46;100508.47;;;8.89;100.0
63691;BME280;49837;57.280;27.070;2023-05-23T02:54:47;100505.7;;;8.91;100.0
63691;BME280;49837;57.280;27.070;2023-05-23T02:55:47;100509.23;;;8.93;100.0
63691;BME280;49837;57.280;27.070;2023-05-23T02:56:47;100505.54;;;8.95;100.0
63691;BME280;49837;57.280;27.070;2023-05-23T02:57:48;100505.91;;;8.98;100.0
63691;BME280;49837;57.280;27.070;2023-05-23T02:58:48;100504.83;;;8.99;100.0
63691;BME280;49837;57.280;27.070;2023-05-23T02:59:49;100505.29;;;9.01;100.0
63691;BME280;49837;57.280;27.070;2023-05-23T03:00:49;100504.9;;;9.03;100.0
63691;BME280;49837;57.280;27.070;2023-05-23T03:01:49;100505.45;;;9.05;100.0
63691;BME280;49837;57.280;27.070;2023-05-23T03:02:50;100505.91;;;9.08;100.0
63691;BME280;49837;57.280;27.070;2023-05-23T03:03:50;100507.22;;;9.1;100.0
63691;BME280;49837;57.280;27.070;2023-05-23T03:04:51;100505.42;;;9.12;100.0
63691;BME280;49837;57.280;27.070;2023-05-23T03:05:51;100503.83;;;9.12;100.0
63691;BME280;49837;57.280;27.070;2023-05-23T03:06:51;100505.38;;;9.14;100.0
63691;BME280;49837;57.280;27.070;2023-05-23T03:07:52;100507.31;;;9.13;100.0
63691;BME280;49837;57.280;27.070;2023-05-23T03:08:52;100507.4;;;9.13;100.0
63691;BME280;49837;57.280;27.070;2023-05-23T03:09:53;100505.33;;;9.12;100.0
63691;BME280;49837;57.280;27.070;2023-05-23T03:10:53;100509.52;;;9.19;100.0
63691;BME280;49837;57.280;27.070;2023-05-23T03:11:54;100508.17;;;9.29;100.0
63691;BME280;49837;57.280;27.070;2023-05-23T03:12:54;100508.03;;;9.37;100.0
63691;BME280;49837;57.280;27.070;2023-05-23T03:13:54;100509.53;;;9.41;100.0
63691;BME280;49837;57.280;27.070;2023-05-23T03:14:55;100509.86;;;9.41;100.0
63691;BME280;49837;57.280;27.070;2023-05-23T03:15:55;100512.84;;;9.42;100.0
63691;BME280;49837;57.280;27.070;2023-05-23T03:16:56;100510.03;;;9.44;100.0
63691;BME280;49837;57.280;27.070;2023-05-23T03:17:56;100514.12;;;9.44;100.0
63691;BME280;49837;57.280;27.070;2023-05-23T03:18:56;100514.61;;;9.45;100.0
63691;BME280;49837;57.280;27.070;2023-05-23T03:19:57;100514.54;;;9.52;100.0
63691;BME280;49837;57.280;27.070;2023-05-23T03:20:57;100514.33;;;9.54;100.0
63691;BME280;49837;57.280;27.070;2023-05-23T03:21:58;100514.64;;;9.55;100.0
63691;BME280;49837;57.280;27.070;2023-05-23T03:22:58;100519.09;;;9.62;100.0
63691;BME280;49837;57.280;27.070;2023-05-23T03:23:58;100517.42;;;9.75;100.0
63691;BME280;49837;57.280;27.070;2023-05-23T03:24:59;100518.72;;;9.89;100.0
63691;BME280;49837;57.280;27.070;2023-05-23T03:25:59;100522.98;;;9.91;100.0
63691;BME280;49837;57.280;27.070;2023-05-23T03:27:00;100526.2;;;9.93;100.0
63691;BME280;49837;57.280;27.070;2023-05-23T03:28:00;100523.24;;;9.88;100.0
63691;BME280;49837;57.280;27.070;2023-05-23T03:29:01;100522.09;;;9.86;100.0
63691;BME280;49837;57.280;27.070;2023-05-23T03:30:02;100518.69;;;9.86;100.0
63691;BME280;49837;57.280;27.070;2023-05-23T03:31:01;100520.67;;;9.82;100.0
63691;BME280;49837;57.280;27.070;2023-05-23T03:32:02;100518.65;;;9.8;100.0
63691;BME280;49837;57.280;27.070;2023-05-23T03:33:02;100517.03;;;9.78;100.0
63691;BME280;49837;57.280;27.070;2023-05-23T03:34:03;100517.55;;;9.77;100.0
63691;BME280;49837;57.280;27.070;2023-05-23T03:35:03;100517.47;;;9.81;100.0
63691;BME280;49837;57.280;27.070;2023-05-23T03:36:04;100515.62;;;9.89;100.0
63691;BME280;49837;57.280;27.070;2023-05-23T03:37:04;100517.89;;;10.0;100.0
63691;BME280;49837;57.280;27.070;2023-05-23T03:38:04;100514.17;;;10.17;100.0
63691;BME280;49837;57.280;27.070;2023-05-23T03:39:05;100517.81;;;10.37;100.0
63691;BME280;49837;57.280;27.070;2023-05-23T03:40:06;100525.17;;;10.51;99.02
63691;BME280;49837;57.280;27.070;2023-05-23T03:41:06;100521.79;;;10.64;98.47
63691;BME280;49837;57.280;27.070;2023-05-23T03:42:06;100520.56;;;10.8;97.21
63691;BME280;49837;57.280;27.070;2023-05-23T03:43:07;100523.45;;;11.01;97.28
63691;BME280;49837;57.280;27.070;2023-05-23T03:44:07;100524.36;;;11.2;96.28
63691;BME280;49837;57.280;27.070;2023-05-23T03:45:07;100523.23;;;11.22;95.51
63691;BME280;49837;57.280;27.070;2023-05-23T03:46:08;100523.52;;;11.3;95.56
63691;BME280;49837;57.280;27.070;2023-05-23T03:47:08;100525.09;;;11.31;94.95
63691;BME280;49837;57.280;27.070;2023-05-23T03:48:09;100524.59;;;11.05;94.68
63691;BME280;49837;57.280;27.070;2023-05-23T03:49:09;100519.34;;;10.99;95.67
63691;BME280;49837;57.280;27.070;2023-05-23T03:50:10;100522.86;;;11.01;96.46
63691;BME280;49837;57.280;27.070;2023-05-23T03:51:10;100519.22;;;10.96;96.24
63691;BME280;49837;57.280;27.070;2023-05-23T03:52:10;100518.12;;;10.94;96.53
63691;BME280;49837;57.280;27.070;2023-05-23T03:53:11;100519.62;;;10.97;96.65
63691;BME280;49837;57.280;27.070;2023-05-23T03:54:11;100519.65;;;10.96;96.57
63691;BME280;49837;57.280;27.070;2023-05-23T03:55:12;100518.78;;;11.0;96.79
63691;BME280;49837;57.280;27.070;2023-05-23T03:56:12;100516.41;;;11.05;96.2
63691;BME280;49837;57.280;27.070;2023-05-23T03:57:12;100518.91;;;11.05;96.16
63691;BME280;49837;57.280;27.070;2023-05-23T03:58:13;100519.24;;;11.14;96.52
63691;BME280;49837;57.280;27.070;2023-05-23T03:59:13;100524.75;;;11.3;96.48
63691;BME280;49837;57.280;27.070;2023-05-23T04:00:14;100522.47;;;11.29;95.74
63691;BME280;49837;57.280;27.070;2023-05-23T04:01:15;100520.13;;;11.28;95.88
63691;BME280;49837;57.280;27.070;2023-05-23T04:02:15;100524.66;;;11.37;96.12
63691;BME280;49837;57.280;27.070;2023-05-23T04:03:15;100523.74;;;11.46;96.06
63691;BME280;49837;57.280;27.070;2023-05-23T04:04:15;100523.06;;;11.43;95.08
63691;BME280;49837;57.280;27.070;2023-05-23T04:05:16;100524.7;;;11.45;95.62
63691;BME280;49837;57.280;27.070;2023-05-23T04:06:16;100525.59;;;11.55;95.21
63691;BME280;49837;57.280;27.070;2023-05-23T04:07:17;100527.23;;;11.49;94.48
63691;BME280;49837;57.280;27.070;2023-05-23T04:08:17;100524.58;;;11.58;95.07
63691;BME280;49837;57.280;27.070;2023-05-23T04:09:18;100521.39;;;11.7;95.26
63691;BME280;49837;57.280;27.070;2023-05-23T04:10:18;100526.59;;;11.83;96.0
63691;BME280;49837;57.280;27.070;2023-05-23T04:11:19;100526.77;;;11.87;95.39
63691;BME280;49837;57.280;27.070;2023-05-23T04:12:19;100525.42;;;11.83;95.11
63691;BME280;49837;57.280;27.070;2023-05-23T04:13:19;100526.19;;;11.75;95.34
63691;BME280;49837;57.280;27.070;2023-05-23T04:14:20;100524.08;;;11.73;95.79
63691;BME280;49837;57.280;27.070;2023-05-23T04:15:20;100522.52;;;11.75;95.58
63691;BME280;49837;57.280;27.070;2023-05-23T04:16:21;100524.33;;;11.78;95.23
63691;BME280;49837;57.280;27.070;2023-05-23T04:17:21;100524.58;;;11.82;94.91
63691;BME280;49837;57.280;27.070;2023-05-23T04:18:22;100522.98;;;11.81;95.16
63691;BME280;49837;57.280;27.070;2023-05-23T04:19:22;100523.27;;;11.86;94.98
63691;BME280;49837;57.280;27.070;2023-05-23T04:20:22;100522.02;;;11.83;94.29
63691;BME280;49837;57.280;27.070;2023-05-23T04:21:23;100524.38;;;11.83;93.33
63691;BME280;49837;57.280;27.070;2023-05-23T04:22:24;100520.12;;;11.88;93.08
63691;BME280;49837;57.280;27.070;2023-05-23T04:23:24;100519.02;;;11.86;92.17
63691;BME280;49837;57.280;27.070;2023-05-23T04:24:24;100521.52;;;11.84;92.99
63691;BME280;49837;57.280;27.070;2023-05-23T04:25:25;100518.67;;;11.92;93.88
63691;BME280;49837;57.280;27.070;2023-05-23T04:26:25;100521.8;;;12.0;93.48
63691;BME280;49837;57.280;27.070;2023-05-23T04:27:26;100519.99;;;12.1;93.19
63691;BME280;49837;57.280;27.070;2023-05-23T04:28:27;100517.94;;;12.17;92.5
63691;BME280;49837;57.280;27.070;2023-05-23T04:29:27;100516.39;;;12.27;92.81
63691;BME280;49837;57.280;27.070;2023-05-23T04:30:27;100516.7;;;12.3;91.09
63691;BME280;49837;57.280;27.070;2023-05-23T04:31:28;100516.55;;;12.24;90.88
63691;BME280;49837;57.280;27.070;2023-05-23T04:32:28;100513.84;;;12.23;90.37
63691;BME280;49837;57.280;27.070;2023-05-23T04:33:29;100515.34;;;12.21;90.09
63691;BME280;49837;57.280;27.070;2023-05-23T04:34:29;100517.22;;;12.22;89.49
63691;BME280;49837;57.280;27.070;2023-05-23T04:35:30;100514.19;;;12.3;89.62
63691;BME280;49837;57.280;27.070;2023-05-23T04:36:30;100517.58;;;12.37;89.79
63691;BME280;49837;57.280;27.070;2023-05-23T04:37:31;100518.59;;;12.45;90.21
63691;BME280;49837;57.280;27.070;2023-05-23T04:38:31;100516.46;;;12.53;89.94
63691;BME280;49837;57.280;27.070;2023-05-23T04:39:31;100514.75;;;12.57;89.76
63691;BME280;49837;57.280;27.070;2023-05-23T04:40:32;100513.45;;;12.61;89.84
63691;BME280;49837;57.280;27.070;2023-05-23T04:41:32;100511.42;;;12.7;90.83
63691;BME280;49837;57.280;27.070;2023-05-23T04:42:33;100510.98;;;12.72;89.84
63691;BME280;49837;57.280;27.070;2023-05-23T04:43:33;100513.22;;;12.74;90.08
63691;BME280;49837;57.280;27.070;2023-05-23T04:44:34;100512.38;;;12.81;89.82
63691;BME280;49837;57.280;27.070;2023-05-23T04:45:34;100508.73;;;12.93;90.52
63691;BME280;49837;57.280;27.070;2023-05-23T04:46:35;100504.14;;;13.0;89.23
63691;BME280;49837;57.280;27.070;2023-05-23T04:47:35;100507.45;;;12.93;88.48
63691;BME280;49837;57.280;27.070;2023-05-23T04:48:36;100504.98;;;12.92;89.52
63691;BME280;49837;57.280;27.070;2023-05-23T04:49:36;100505.07;;;13.02;91.04
63691;BME280;49837;57.280;27.070;2023-05-23T04:50:37;100505.95;;;13.15;90.67
63691;BME280;49837;57.280;27.070;2023-05-23T04:51:38;100503.5;;;13.18;88.6
63691;BME280;49837;57.280;27.070;2023-05-23T04:52:38;100503.04;;;13.17;87.9
63691;BME280;49837;57.280;27.070;2023-05-23T04:53:38;100502.8;;;13.19;87.63
63691;BME280;49837;57.280;27.070;2023-05-23T04:54:39;100504.9;;;13.26;88.23
63691;BME280;49837;57.280;27.070;2023-05-23T04:55:39;100502.89;;;13.38;88.99
63691;BME280;49837;57.280;27.070;2023-05-23T04:56:40;100503.67;;;13.44;87.67
63691;BME280;49837;57.280;27.070;2023-05-23T04:57:40;100509.87;;;13.47;86.69
63691;BME280;49837;57.280;27.070;2023-05-23T04:58:40;100506.7;;;13.51;86.47
63691;BME280;49837;57.280;27.070;2023-05-23T04:59:41;100508.21;;;13.61;85.93
63691;BME280;49837;57.280;27.070;2023-05-23T05:00:41;100501.99;;;13.66;85.74
63691;BME280;49837;57.280;27.070;2023-05-23T05:01:43;100505.38;;;13.74;86.61
63691;BME280;49837;57.280;27.070;2023-05-23T05:02:42;100504.12;;;13.78;85.58
63691;BME280;49837;57.280;27.070;2023-05-23T05:03:43;100502.19;;;13.83;85.28
63691;BME280;49837;57.280;27.070;2023-05-23T05:04:43;100501.17;;;13.91;85.72
63691;BME280;49837;57.280;27.070;2023-05-23T05:05:43;100502.04;;;14.0;85.59
63691;BME280;49837;57.280;27.070;2023-05-23T05:06:44;100501.27;;;14.07;86.06
63691;BME280;49837;57.280;27.070;2023-05-23T05:07:44;100504.37;;;14.15;86.04
63691;BME280;49837;57.280;27.070;2023-05-23T05:08:45;100499.09;;;14.18;84.57
63691;BME280;49837;57.280;27.070;2023-05-23T05:09:45;100500.89;;;14.19;84.67
63691;BME280;49837;57.280;27.070;2023-05-23T05:10:46;100497.77;;;14.19;83.89
63691;BME280;49837;57.280;27.070;2023-05-23T05:11:46;100502.27;;;14.24;84.54
63691;BME280;49837;57.280;27.070;2023-05-23T05:12:47;100498.29;;;14.27;84.15
63691;BME280;49837;57.280;27.070;2023-05-23T05:13:47;100498.88;;;14.29;81.9
63691;BME280;49837;57.280;27.070;2023-05-23T05:14:47;100498.36;;;14.36;82.66
63691;BME280;49837;57.280;27.070;2023-05-23T05:15:48;100494.94;;;14.42;82.51
63691;BME280;49837;57.280;27.070;2023-05-23T05:16:48;100498.9;;;14.46;81.89
63691;BME280;49837;57.280;27.070;2023-05-23T05:17:49;100496.91;;;14.43;82.49
63691;BME280;49837;57.280;27.070;2023-05-23T05:18:49;100500.08;;;14.54;84.23
63691;BME280;49837;57.280;27.070;2023-05-23T05:19:50;100499.45;;;14.57;84.46
63691;BME280;49837;57.280;27.070;2023-05-23T05:20:50;100499.08;;;14.62;84.14
63691;BME280;49837;57.280;27.070;2023-05-23T05:21:51;100495.69;;;14.62;81.62
63691;BME280;49837;57.280;27.070;2023-05-23T05:22:56;100497.0;;;14.7;81.89
63691;BME280;49837;57.280;27.070;2023-05-23T05:23:54;100494.95;;;14.77;81.12
63691;BME280;49837;57.280;27.070;2023-05-23T05:24:54;100493.24;;;14.69;80.3
63691;BME280;49837;57.280;27.070;2023-05-23T05:25:55;100493.97;;;14.78;79.98
63691;BME280;49837;57.280;27.070;2023-05-23T05:26:56;100493.03;;;14.86;80.58
63691;BME280;49837;57.280;27.070;2023-05-23T05:27:57;100493.23;;;14.94;81.39